sensor_id;sensor_type;location;lat;lon;timestamp;P1;durP1;ratioP1;P2;durP2;ratioP2
16662;SDS011;8445;51.270;9.434;2022-10-17T00:00:19;9.60;;;6.60;;
16662;SDS011;8445;51.270;9.434;2022-10-17T00:02:46;11.48;;;6.15;;
16662;SDS011;8445;51.270;9.434;2022-10-17T00:05:13;9.27;;;6.50;;
16662;SDS011;8445;51.270;9.434;2022-10-17T00:07:40;7.28;;;6.10;;
16662;SDS011;8445;51.270;9.434;2022-10-17T00:10:07;8.48;;;6.28;;
16662;SDS011;8445;51.270;9.434;2022-10-17T00:12:34;6.70;;;6.07;;
16662;SDS011;8445;51.270;9.434;2022-10-17T00:15:03;13.10;;;6.65;;
16662;SDS011;8445;51.270;9.434;2022-10-17T00:17:33;7.32;;;5.93;;
16662;SDS011;8445;51.270;9.434;2022-10-17T00:20:00;7.30;;;6.00;;
16662;SDS011;8445;51.270;9.434;2022-10-17T00:22:28;6.55;;;5.28;;
16662;SDS011;8445;51.270;9.434;2022-10-17T00:24:54;9.02;;;5.68;;
16662;SDS011;8445;51.270;9.434;2022-10-17T00:27:21;7.00;;;5.82;;
16662;SDS011;8445;51.270;9.434;2022-10-17T00:29:49;7.72;;;6.88;;
16662;SDS011;8445;51.270;9.434;2022-10-17T00:32:17;8.00;;;5.93;;
16662;SDS011;8445;51.270;9.434;2022-10-17T00:34:44;8.65;;;6.32;;
16662;SDS011;8445;51.270;9.434;2022-10-17T00:37:12;7.03;;;6.00;;
16662;SDS011;8445;51.270;9.434;2022-10-17T00:39:39;6.45;;;5.70;;
16662;SDS011;8445;51.270;9.434;2022-10-17T00:42:06;9.88;;;5.90;;
16662;SDS011;8445;51.270;9.434;2022-10-17T00:47:13;6.65;;;5.90;;
16662;SDS011;8445;51.270;9.434;2022-10-17T00:49:46;10.98;;;6.07;;
16662;SDS011;8445;51.270;9.434;2022-10-17T00:52:14;14.68;;;6.57;;
16662;SDS011;8445;51.270;9.434;2022-10-17T00:55:00;12.13;;;6.30;;
16662;SDS011;8445;51.270;9.434;2022-10-17T00:57:54;6.40;;;5.78;;
16662;SDS011;8445;51.270;9.434;2022-10-17T01:00:25;6.63;;;5.88;;
16662;SDS011;8445;51.270;9.434;2022-10-17T01:02:52;6.88;;;5.57;;
16662;SDS011;8445;51.270;9.434;2022-10-17T01:05:18;10.38;;;6.13;;
16662;SDS011;8445;51.270;9.434;2022-10-17T01:07:45;6.57;;;5.97;;
16662;SDS011;8445;51.270;9.434;2022-10-17T01:10:15;6.43;;;5.82;;
16662;SDS011;8445;51.270;9.434;2022-10-17T01:12:51;9.07;;;6.03;;
16662;SDS011;8445;51.270;9.434;2022-10-17T01:15:47;6.30;;;5.38;;
16662;SDS011;8445;51.270;9.434;2022-10-17T01:23:58;6.43;;;5.80;;
16662;SDS011;8445;51.270;9.434;2022-10-17T01:30:14;9.25;;;5.60;;
16662;SDS011;8445;51.270;9.434;2022-10-17T01:33:08;8.60;;;6.32;;
16662;SDS011;8445;51.270;9.434;2022-10-17T01:35:46;6.75;;;6.07;;
16662;SDS011;8445;51.270;9.434;2022-10-17T01:38:27;9.23;;;5.55;;
16662;SDS011;8445;51.270;9.434;2022-10-17T01:41:01;15.23;;;6.43;;
16662;SDS011;8445;51.270;9.434;2022-10-17T01:43:39;7.47;;;6.13;;
16662;SDS011;8445;51.270;9.434;2022-10-17T01:46:17;9.40;;;6.70;;
16662;SDS011;8445;51.270;9.434;2022-10-17T01:49:01;7.78;;;6.45;;
16662;SDS011;8445;51.270;9.434;2022-10-17T01:51:53;9.05;;;7.60;;
16662;SDS011;8445;51.270;9.434;2022-10-17T01:54:26;8.15;;;6.88;;
16662;SDS011;8445;51.270;9.434;2022-10-17T01:57:10;11.38;;;6.93;;
16662;SDS011;8445;51.270;9.434;2022-10-17T01:59:55;10.45;;;7.07;;
16662;SDS011;8445;51.270;9.434;2022-10-17T02:02:22;8.40;;;7.60;;
16662;SDS011;8445;51.270;9.434;2022-10-17T02:04:50;8.43;;;7.40;;
16662;SDS011;8445;51.270;9.434;2022-10-17T02:07:19;14.00;;;7.35;;
16662;SDS011;8445;51.270;9.434;2022-10-17T02:09:45;7.90;;;7.13;;
16662;SDS011;8445;51.270;9.434;2022-10-17T02:23:37;10.43;;;7.38;;
16662;SDS011;8445;51.270;9.434;2022-10-17T02:26:31;11.27;;;8.00;;
16662;SDS011;8445;51.270;9.434;2022-10-17T02:29:35;8.95;;;7.40;;
16662;SDS011;8445;51.270;9.434;2022-10-17T02:35:29;12.88;;;8.10;;
16662;SDS011;8445;51.270;9.434;2022-10-17T02:38:01;11.25;;;7.88;;
16662;SDS011;8445;51.270;9.434;2022-10-17T02:40:30;8.80;;;7.90;;
16662;SDS011;8445;51.270;9.434;2022-10-17T02:42:57;11.13;;;8.50;;
16662;SDS011;8445;51.270;9.434;2022-10-17T02:45:25;10.93;;;8.60;;
16662;SDS011;8445;51.270;9.434;2022-10-17T02:54:12;15.95;;;9.05;;
16662;SDS011;8445;51.270;9.434;2022-10-17T02:56:52;12.73;;;9.25;;
16662;SDS011;8445;51.270;9.434;2022-10-17T02:59:36;11.82;;;8.88;;
16662;SDS011;8445;51.270;9.434;2022-10-17T03:02:06;12.30;;;8.93;;
16662;SDS011;8445;51.270;9.434;2022-10-17T03:04:32;16.13;;;8.93;;
16662;SDS011;8445;51.270;9.434;2022-10-17T03:06:58;14.02;;;8.80;;
16662;SDS011;8445;51.270;9.434;2022-10-17T03:09:24;10.75;;;8.10;;
16662;SDS011;8445;51.270;9.434;2022-10-17T03:11:50;11.43;;;9.23;;
16662;SDS011;8445;51.270;9.434;2022-10-17T03:14:17;10.57;;;8.27;;
16662;SDS011;8445;51.270;9.434;2022-10-17T03:16:43;12.57;;;8.27;;
16662;SDS011;8445;51.270;9.434;2022-10-17T03:19:09;12.02;;;8.82;;
16662;SDS011;8445;51.270;9.434;2022-10-17T03:21:35;10.35;;;8.57;;
16662;SDS011;8445;51.270;9.434;2022-10-17T03:24:02;11.18;;;8.57;;
16662;SDS011;8445;51.270;9.434;2022-10-17T03:26:29;12.88;;;8.10;;
16662;SDS011;8445;51.270;9.434;2022-10-17T03:28:56;12.73;;;8.23;;
16662;SDS011;8445;51.270;9.434;2022-10-17T03:31:22;11.10;;;8.23;;
16662;SDS011;8445;51.270;9.434;2022-10-17T03:33:49;17.20;;;8.18;;
16662;SDS011;8445;51.270;9.434;2022-10-17T03:36:16;11.88;;;8.32;;
16662;SDS011;8445;51.270;9.434;2022-10-17T03:38:45;10.73;;;7.25;;
16662;SDS011;8445;51.270;9.434;2022-10-17T03:41:12;11.82;;;7.57;;
16662;SDS011;8445;51.270;9.434;2022-10-17T03:43:38;10.85;;;7.53;;
16662;SDS011;8445;51.270;9.434;2022-10-17T03:46:05;9.75;;;7.75;;
16662;SDS011;8445;51.270;9.434;2022-10-17T03:48:32;9.43;;;7.38;;
16662;SDS011;8445;51.270;9.434;2022-10-17T03:50:59;8.07;;;7.22;;
16662;SDS011;8445;51.270;9.434;2022-10-17T03:53:33;14.52;;;8.18;;
16662;SDS011;8445;51.270;9.434;2022-10-17T03:58:41;16.67;;;8.75;;
16662;SDS011;8445;51.270;9.434;2022-10-17T04:01:08;13.07;;;8.95;;
16662;SDS011;8445;51.270;9.434;2022-10-17T04:03:37;12.00;;;8.45;;
16662;SDS011;8445;51.270;9.434;2022-10-17T04:06:04;11.63;;;8.20;;
16662;SDS011;8445;51.270;9.434;2022-10-17T04:08:33;12.30;;;8.75;;
16662;SDS011;8445;51.270;9.434;2022-10-17T04:11:05;11.13;;;8.30;;
16662;SDS011;8445;51.270;9.434;2022-10-17T04:13:33;14.82;;;9.00;;
16662;SDS011;8445;51.270;9.434;2022-10-17T04:16:01;14.82;;;9.07;;
16662;SDS011;8445;51.270;9.434;2022-10-17T04:18:31;14.48;;;8.15;;
16662;SDS011;8445;51.270;9.434;2022-10-17T04:20:59;11.25;;;8.27;;
16662;SDS011;8445;51.270;9.434;2022-10-17T04:23:27;12.23;;;8.07;;
16662;SDS011;8445;51.270;9.434;2022-10-17T04:25:58;12.68;;;8.07;;
16662;SDS011;8445;51.270;9.434;2022-10-17T04:28:26;13.13;;;7.45;;
16662;SDS011;8445;51.270;9.434;2022-10-17T04:30:56;11.50;;;8.05;;
16662;SDS011;8445;51.270;9.434;2022-10-17T04:33:54;10.20;;;7.28;;
16662;SDS011;8445;51.270;9.434;2022-10-17T04:36:20;9.05;;;7.75;;
16662;SDS011;8445;51.270;9.434;2022-10-17T04:38:47;9.85;;;7.78;;
16662;SDS011;8445;51.270;9.434;2022-10-17T04:41:14;9.50;;;7.05;;
16662;SDS011;8445;51.270;9.434;2022-10-17T04:43:42;10.07;;;7.68;;
16662;SDS011;8445;51.270;9.434;2022-10-17T04:46:10;13.23;;;7.82;;
16662;SDS011;8445;51.270;9.434;2022-10-17T04:48:39;12.82;;;7.90;;
16662;SDS011;8445;51.270;9.434;2022-10-17T04:51:07;8.75;;;7.85;;
16662;SDS011;8445;51.270;9.434;2022-10-17T04:53:59;10.30;;;7.55;;
16662;SDS011;8445;51.270;9.434;2022-10-17T04:56:25;13.40;;;7.97;;
16662;SDS011;8445;51.270;9.434;2022-10-17T04:58:50;42.78;;;19.83;;
16662;SDS011;8445;51.270;9.434;2022-10-17T05:01:18;13.13;;;7.78;;
16662;SDS011;8445;51.270;9.434;2022-10-17T05:03:50;13.00;;;7.82;;
16662;SDS011;8445;51.270;9.434;2022-10-17T05:06:18;14.75;;;7.95;;
16662;SDS011;8445;51.270;9.434;2022-10-17T05:09:14;9.20;;;7.53;;
16662;SDS011;8445;51.270;9.434;2022-10-17T05:11:40;10.70;;;7.57;;
16662;SDS011;8445;51.270;9.434;2022-10-17T05:14:08;10.77;;;7.88;;
16662;SDS011;8445;51.270;9.434;2022-10-17T05:16:34;11.63;;;7.68;;
16662;SDS011;8445;51.270;9.434;2022-10-17T05:19:00;9.80;;;7.18;;
16662;SDS011;8445;51.270;9.434;2022-10-17T05:21:31;10.18;;;7.80;;
16662;SDS011;8445;51.270;9.434;2022-10-17T05:23:58;13.90;;;8.30;;
16662;SDS011;8445;51.270;9.434;2022-10-17T05:26:24;10.00;;;6.95;;
16662;SDS011;8445;51.270;9.434;2022-10-17T05:28:50;8.82;;;7.22;;
16662;SDS011;8445;51.270;9.434;2022-10-17T05:31:19;13.27;;;7.82;;
16662;SDS011;8445;51.270;9.434;2022-10-17T05:33:45;13.90;;;7.43;;
16662;SDS011;8445;51.270;9.434;2022-10-17T05:36:13;8.30;;;7.15;;
16662;SDS011;8445;51.270;9.434;2022-10-17T05:38:39;11.50;;;7.35;;
16662;SDS011;8445;51.270;9.434;2022-10-17T05:41:08;9.88;;;7.25;;
16662;SDS011;8445;51.270;9.434;2022-10-17T05:43:35;13.07;;;7.55;;
16662;SDS011;8445;51.270;9.434;2022-10-17T05:46:02;11.30;;;7.38;;
16662;SDS011;8445;51.270;9.434;2022-10-17T05:48:31;10.07;;;7.47;;
16662;SDS011;8445;51.270;9.434;2022-10-17T05:51:00;9.15;;;7.10;;
16662;SDS011;8445;51.270;9.434;2022-10-17T05:53:31;12.05;;;7.15;;
16662;SDS011;8445;51.270;9.434;2022-10-17T05:56:04;27.13;;;10.60;;
16662;SDS011;8445;51.270;9.434;2022-10-17T05:58:34;12.88;;;7.00;;
16662;SDS011;8445;51.270;9.434;2022-10-17T06:01:04;7.75;;;6.13;;
16662;SDS011;8445;51.270;9.434;2022-10-17T06:03:31;7.32;;;5.97;;
16662;SDS011;8445;51.270;9.434;2022-10-17T06:06:05;14.32;;;9.38;;
16662;SDS011;8445;51.270;9.434;2022-10-17T06:08:40;10.07;;;6.85;;
16662;SDS011;8445;51.270;9.434;2022-10-17T06:11:09;9.15;;;5.55;;
16662;SDS011;8445;51.270;9.434;2022-10-17T06:13:35;13.57;;;5.75;;
16662;SDS011;8445;51.270;9.434;2022-10-17T06:16:08;10.57;;;5.50;;
16662;SDS011;8445;51.270;9.434;2022-10-17T06:18:34;9.20;;;6.97;;
16662;SDS011;8445;51.270;9.434;2022-10-17T06:21:01;7.70;;;4.82;;
16662;SDS011;8445;51.270;9.434;2022-10-17T06:23:30;9.02;;;5.45;;
16662;SDS011;8445;51.270;9.434;2022-10-17T06:26:06;8.20;;;5.00;;
16662;SDS011;8445;51.270;9.434;2022-10-17T06:28:36;6.28;;;4.63;;
16662;SDS011;8445;51.270;9.434;2022-10-17T06:31:09;5.00;;;4.45;;
16662;SDS011;8445;51.270;9.434;2022-10-17T06:33:38;8.30;;;4.63;;
16662;SDS011;8445;51.270;9.434;2022-10-17T06:36:04;6.35;;;5.15;;
16662;SDS011;8445;51.270;9.434;2022-10-17T06:38:34;10.48;;;4.35;;
16662;SDS011;8445;51.270;9.434;2022-10-17T06:41:09;6.13;;;3.88;;
16662;SDS011;8445;51.270;9.434;2022-10-17T06:43:41;4.25;;;3.85;;
16662;SDS011;8445;51.270;9.434;2022-10-17T06:46:29;14.27;;;4.80;;
16662;SDS011;8445;51.270;9.434;2022-10-17T06:49:00;4.63;;;3.92;;
16662;SDS011;8445;51.270;9.434;2022-10-17T06:51:46;7.32;;;3.38;;
16662;SDS011;8445;51.270;9.434;2022-10-17T06:54:15;3.33;;;2.83;;
16662;SDS011;8445;51.270;9.434;2022-10-17T06:57:00;4.88;;;3.65;;
16662;SDS011;8445;51.270;9.434;2022-10-17T06:59:58;3.45;;;3.15;;
16662;SDS011;8445;51.270;9.434;2022-10-17T07:02:30;3.40;;;3.10;;
16662;SDS011;8445;51.270;9.434;2022-10-17T07:04:58;8.57;;;3.53;;
16662;SDS011;8445;51.270;9.434;2022-10-17T07:07:24;3.75;;;3.00;;
16662;SDS011;8445;51.270;9.434;2022-10-17T07:09:51;5.75;;;3.10;;
16662;SDS011;8445;51.270;9.434;2022-10-17T07:12:18;6.10;;;3.30;;
16662;SDS011;8445;51.270;9.434;2022-10-17T07:14:44;5.25;;;3.22;;
16662;SDS011;8445;51.270;9.434;2022-10-17T07:17:12;3.53;;;3.05;;
16662;SDS011;8445;51.270;9.434;2022-10-17T07:19:37;2.95;;;2.72;;
16662;SDS011;8445;51.270;9.434;2022-10-17T07:22:05;12.30;;;3.20;;
16662;SDS011;8445;51.270;9.434;2022-10-17T07:24:31;5.47;;;2.97;;
16662;SDS011;8445;51.270;9.434;2022-10-17T07:27:17;3.47;;;3.03;;
16662;SDS011;8445;51.270;9.434;2022-10-17T07:29:43;6.20;;;3.55;;
16662;SDS011;8445;51.270;9.434;2022-10-17T07:32:15;3.25;;;2.95;;
16662;SDS011;8445;51.270;9.434;2022-10-17T07:34:41;3.33;;;2.88;;
16662;SDS011;8445;51.270;9.434;2022-10-17T07:37:08;3.30;;;3.00;;
16662;SDS011;8445;51.270;9.434;2022-10-17T07:39:36;7.88;;;3.38;;
16662;SDS011;8445;51.270;9.434;2022-10-17T07:42:04;4.25;;;2.95;;
16662;SDS011;8445;51.270;9.434;2022-10-17T07:44:32;5.55;;;3.30;;
16662;SDS011;8445;51.270;9.434;2022-10-17T07:47:00;6.95;;;3.20;;
16662;SDS011;8445;51.270;9.434;2022-10-17T07:49:26;7.75;;;3.28;;
16662;SDS011;8445;51.270;9.434;2022-10-17T07:51:52;3.90;;;2.95;;
16662;SDS011;8445;51.270;9.434;2022-10-17T07:54:18;3.33;;;2.70;;
16662;SDS011;8445;51.270;9.434;2022-10-17T07:56:44;5.78;;;3.08;;
16662;SDS011;8445;51.270;9.434;2022-10-17T07:59:14;6.38;;;3.25;;
16662;SDS011;8445;51.270;9.434;2022-10-17T08:01:42;4.88;;;3.58;;
16662;SDS011;8445;51.270;9.434;2022-10-17T08:04:08;7.93;;;3.13;;
16662;SDS011;8445;51.270;9.434;2022-10-17T08:06:34;9.93;;;4.03;;
16662;SDS011;8445;51.270;9.434;2022-10-17T08:08:59;5.90;;;3.33;;
16662;SDS011;8445;51.270;9.434;2022-10-17T08:11:26;14.35;;;3.50;;
16662;SDS011;8445;51.270;9.434;2022-10-17T08:13:52;5.35;;;3.38;;
16662;SDS011;8445;51.270;9.434;2022-10-17T08:16:18;8.20;;;3.47;;
16662;SDS011;8445;51.270;9.434;2022-10-17T08:18:44;5.57;;;3.72;;
16662;SDS011;8445;51.270;9.434;2022-10-17T08:21:10;7.43;;;3.97;;
16662;SDS011;8445;51.270;9.434;2022-10-17T08:23:37;5.57;;;3.70;;
16662;SDS011;8445;51.270;9.434;2022-10-17T08:26:04;11.32;;;4.63;;
16662;SDS011;8445;51.270;9.434;2022-10-17T08:28:35;9.55;;;4.85;;
16662;SDS011;8445;51.270;9.434;2022-10-17T08:31:03;7.53;;;4.43;;
16662;SDS011;8445;51.270;9.434;2022-10-17T08:33:32;6.70;;;4.65;;
16662;SDS011;8445;51.270;9.434;2022-10-17T08:35:58;4.60;;;3.80;;
16662;SDS011;8445;51.270;9.434;2022-10-17T08:38:27;4.60;;;3.38;;
16662;SDS011;8445;51.270;9.434;2022-10-17T08:40:59;8.23;;;3.20;;
16662;SDS011;8445;51.270;9.434;2022-10-17T08:46:38;8.00;;;2.38;;
16662;SDS011;8445;51.270;9.434;2022-10-17T08:49:10;4.63;;;2.22;;
16662;SDS011;8445;51.270;9.434;2022-10-17T08:51:50;7.80;;;3.00;;
16662;SDS011;8445;51.270;9.434;2022-10-17T08:54:45;5.57;;;2.78;;
16662;SDS011;8445;51.270;9.434;2022-10-17T08:57:13;6.88;;;2.80;;
16662;SDS011;8445;51.270;9.434;2022-10-17T08:59:42;5.47;;;3.30;;
16662;SDS011;8445;51.270;9.434;2022-10-17T09:14:33;5.97;;;2.85;;
16662;SDS011;8445;51.270;9.434;2022-10-17T09:23:23;5.30;;;2.70;;
16662;SDS011;8445;51.270;9.434;2022-10-17T09:25:58;7.05;;;2.38;;
16662;SDS011;8445;51.270;9.434;2022-10-17T09:28:33;7.07;;;2.63;;
16662;SDS011;8445;51.270;9.434;2022-10-17T09:33:51;5.13;;;2.65;;
16662;SDS011;8445;51.270;9.434;2022-10-17T09:38:52;4.70;;;2.85;;
16662;SDS011;8445;51.270;9.434;2022-10-17T09:41:26;5.03;;;3.00;;
16662;SDS011;8445;51.270;9.434;2022-10-17T09:49:54;5.22;;;3.17;;
16662;SDS011;8445;51.270;9.434;2022-10-17T09:52:24;4.40;;;3.10;;
16662;SDS011;8445;51.270;9.434;2022-10-17T09:54:52;4.82;;;3.03;;
16662;SDS011;8445;51.270;9.434;2022-10-17T09:57:56;7.30;;;3.33;;
16662;SDS011;8445;51.270;9.434;2022-10-17T10:00:26;6.57;;;2.20;;
16662;SDS011;8445;51.270;9.434;2022-10-17T10:03:17;11.50;;;2.63;;
16662;SDS011;8445;51.270;9.434;2022-10-17T10:11:22;5.22;;;2.72;;
16662;SDS011;8445;51.270;9.434;2022-10-17T10:14:30;7.80;;;2.30;;
16662;SDS011;8445;51.270;9.434;2022-10-17T10:17:00;4.88;;;2.65;;
16662;SDS011;8445;51.270;9.434;2022-10-17T10:19:52;7.20;;;2.42;;
16662;SDS011;8445;51.270;9.434;2022-10-17T10:22:19;7.65;;;2.70;;
16662;SDS011;8445;51.270;9.434;2022-10-17T10:25:05;6.15;;;2.55;;
16662;SDS011;8445;51.270;9.434;2022-10-17T10:27:34;5.30;;;2.97;;
16662;SDS011;8445;51.270;9.434;2022-10-17T10:30:04;4.47;;;2.65;;
16662;SDS011;8445;51.270;9.434;2022-10-17T10:32:31;5.53;;;2.97;;
16662;SDS011;8445;51.270;9.434;2022-10-17T10:35:02;3.72;;;2.40;;
16662;SDS011;8445;51.270;9.434;2022-10-17T10:37:45;4.55;;;2.15;;
16662;SDS011;8445;51.270;9.434;2022-10-17T10:42:48;5.40;;;2.20;;
16662;SDS011;8445;51.270;9.434;2022-10-17T10:51:16;6.63;;;1.90;;
16662;SDS011;8445;51.270;9.434;2022-10-17T10:54:07;10.52;;;1.85;;
16662;SDS011;8445;51.270;9.434;2022-10-17T10:56:42;4.65;;;1.85;;
16662;SDS011;8445;51.270;9.434;2022-10-17T10:59:14;5.13;;;2.10;;
16662;SDS011;8445;51.270;9.434;2022-10-17T11:02:14;4.57;;;1.85;;
16662;SDS011;8445;51.270;9.434;2022-10-17T11:10:43;4.88;;;2.13;;
16662;SDS011;8445;51.270;9.434;2022-10-17T11:20:10;14.63;;;2.08;;
16662;SDS011;8445;51.270;9.434;2022-10-17T11:22:48;7.70;;;2.00;;
16662;SDS011;8445;51.270;9.434;2022-10-17T11:25:35;6.80;;;1.85;;
16662;SDS011;8445;51.270;9.434;2022-10-17T11:28:14;3.55;;;1.98;;
16662;SDS011;8445;51.270;9.434;2022-10-17T11:30:48;4.50;;;2.15;;
16662;SDS011;8445;51.270;9.434;2022-10-17T11:33:28;4.80;;;1.83;;
16662;SDS011;8445;51.270;9.434;2022-10-17T11:36:20;7.70;;;1.90;;
16662;SDS011;8445;51.270;9.434;2022-10-17T11:38:54;5.45;;;2.03;;
16662;SDS011;8445;51.270;9.434;2022-10-17T11:41:38;8.43;;;2.33;;
16662;SDS011;8445;51.270;9.434;2022-10-17T11:44:21;8.00;;;2.17;;
16662;SDS011;8445;51.270;9.434;2022-10-17T11:50:26;8.68;;;2.58;;
16662;SDS011;8445;51.270;9.434;2022-10-17T11:53:02;12.80;;;2.55;;
16662;SDS011;8445;51.270;9.434;2022-10-17T11:55:36;9.32;;;2.80;;
16662;SDS011;8445;51.270;9.434;2022-10-17T12:07:21;6.90;;;2.20;;
16662;SDS011;8445;51.270;9.434;2022-10-17T12:10:24;4.43;;;2.22;;
16662;SDS011;8445;51.270;9.434;2022-10-17T12:16:36;5.30;;;2.22;;
16662;SDS011;8445;51.270;9.434;2022-10-17T12:19:28;5.18;;;2.42;;
16662;SDS011;8445;51.270;9.434;2022-10-17T12:22:35;5.68;;;2.58;;
16662;SDS011;8445;51.270;9.434;2022-10-17T12:24:42;5.97;;;2.35;;
16662;SDS011;8445;51.270;9.434;2022-10-17T12:27:26;9.65;;;2.15;;
16662;SDS011;8445;51.270;9.434;2022-10-17T12:32:36;8.10;;;2.22;;
16662;SDS011;8445;51.270;9.434;2022-10-17T12:35:21;3.60;;;2.30;;
16662;SDS011;8445;51.270;9.434;2022-10-17T12:56:08;5.20;;;2.15;;
16662;SDS011;8445;51.270;9.434;2022-10-17T12:58:35;4.20;;;1.80;;
16662;SDS011;8445;51.270;9.434;2022-10-17T13:01:01;5.30;;;2.42;;
16662;SDS011;8445;51.270;9.434;2022-10-17T13:03:33;3.45;;;2.08;;
16662;SDS011;8445;51.270;9.434;2022-10-17T13:06:15;8.45;;;2.22;;
16662;SDS011;8445;51.270;9.434;2022-10-17T13:08:49;4.05;;;2.28;;
16662;SDS011;8445;51.270;9.434;2022-10-17T13:11:29;7.32;;;2.00;;
16662;SDS011;8445;51.270;9.434;2022-10-17T13:13:59;10.00;;;2.35;;
16662;SDS011;8445;51.270;9.434;2022-10-17T13:16:51;6.22;;;2.10;;
16662;SDS011;8445;51.270;9.434;2022-10-17T13:19:29;5.30;;;2.13;;
16662;SDS011;8445;51.270;9.434;2022-10-17T13:22:18;4.20;;;2.25;;
16662;SDS011;8445;51.270;9.434;2022-10-17T13:24:47;4.68;;;1.90;;
16662;SDS011;8445;51.270;9.434;2022-10-17T13:27:29;3.85;;;2.15;;
16662;SDS011;8445;51.270;9.434;2022-10-17T13:29:59;6.50;;;2.42;;
16662;SDS011;8445;51.270;9.434;2022-10-17T13:32:45;5.65;;;2.30;;
16662;SDS011;8445;51.270;9.434;2022-10-17T13:35:12;4.70;;;1.70;;
16662;SDS011;8445;51.270;9.434;2022-10-17T13:37:41;7.03;;;2.42;;
16662;SDS011;8445;51.270;9.434;2022-10-17T13:40:14;8.52;;;2.30;;
16662;SDS011;8445;51.270;9.434;2022-10-17T13:42:47;9.10;;;2.65;;
16662;SDS011;8445;51.270;9.434;2022-10-17T13:45:27;4.10;;;2.60;;
16662;SDS011;8445;51.270;9.434;2022-10-17T13:47:59;4.97;;;2.60;;
16662;SDS011;8445;51.270;9.434;2022-10-17T13:53:16;8.45;;;2.08;;
16662;SDS011;8445;51.270;9.434;2022-10-17T13:56:15;8.60;;;1.80;;
16662;SDS011;8445;51.270;9.434;2022-10-17T13:58:50;5.28;;;2.55;;
16662;SDS011;8445;51.270;9.434;2022-10-17T14:01:22;8.93;;;2.63;;
16662;SDS011;8445;51.270;9.434;2022-10-17T14:03:58;5.20;;;1.92;;
16662;SDS011;8445;51.270;9.434;2022-10-17T14:06:27;5.32;;;2.00;;
16662;SDS011;8445;51.270;9.434;2022-10-17T14:08:59;4.72;;;2.25;;
16662;SDS011;8445;51.270;9.434;2022-10-17T14:11:54;7.63;;;2.28;;
16662;SDS011;8445;51.270;9.434;2022-10-17T14:14:30;5.43;;;2.20;;
16662;SDS011;8445;51.270;9.434;2022-10-17T14:16:57;8.90;;;2.20;;
16662;SDS011;8445;51.270;9.434;2022-10-17T14:19:24;8.48;;;2.30;;
16662;SDS011;8445;51.270;9.434;2022-10-17T14:24:44;4.57;;;2.05;;
16662;SDS011;8445;51.270;9.434;2022-10-17T14:27:30;4.72;;;2.17;;
16662;SDS011;8445;51.270;9.434;2022-10-17T14:30:27;4.90;;;2.30;;
16662;SDS011;8445;51.270;9.434;2022-10-17T14:32:55;8.70;;;2.30;;
16662;SDS011;8445;51.270;9.434;2022-10-17T14:35:36;4.90;;;2.22;;
16662;SDS011;8445;51.270;9.434;2022-10-17T14:38:04;7.32;;;2.50;;
16662;SDS011;8445;51.270;9.434;2022-10-17T14:40:31;9.25;;;2.45;;
16662;SDS011;8445;51.270;9.434;2022-10-17T14:43:00;4.32;;;2.58;;
16662;SDS011;8445;51.270;9.434;2022-10-17T14:45:35;4.13;;;2.47;;
16662;SDS011;8445;51.270;9.434;2022-10-17T14:48:08;4.53;;;2.20;;
16662;SDS011;8445;51.270;9.434;2022-10-17T14:50:39;5.05;;;2.17;;
16662;SDS011;8445;51.270;9.434;2022-10-17T14:55:37;6.93;;;2.55;;
16662;SDS011;8445;51.270;9.434;2022-10-17T14:58:17;6.53;;;2.47;;
16662;SDS011;8445;51.270;9.434;2022-10-17T15:00:49;8.70;;;2.58;;
16662;SDS011;8445;51.270;9.434;2022-10-17T15:03:14;10.35;;;3.00;;
16662;SDS011;8445;51.270;9.434;2022-10-17T15:05:43;6.20;;;3.58;;
16662;SDS011;8445;51.270;9.434;2022-10-17T15:08:14;10.98;;;3.13;;
16662;SDS011;8445;51.270;9.434;2022-10-17T15:10:43;4.68;;;3.10;;
16662;SDS011;8445;51.270;9.434;2022-10-17T15:13:12;7.22;;;3.25;;
16662;SDS011;8445;51.270;9.434;2022-10-17T15:15:38;5.88;;;2.60;;
16662;SDS011;8445;51.270;9.434;2022-10-17T15:18:06;9.32;;;3.15;;
16662;SDS011;8445;51.270;9.434;2022-10-17T15:20:35;6.35;;;2.80;;
16662;SDS011;8445;51.270;9.434;2022-10-17T15:23:02;6.78;;;3.60;;
16662;SDS011;8445;51.270;9.434;2022-10-17T15:25:29;4.95;;;2.95;;
16662;SDS011;8445;51.270;9.434;2022-10-17T15:27:56;7.32;;;2.88;;
16662;SDS011;8445;51.270;9.434;2022-10-17T15:32:51;5.45;;;2.75;;
16662;SDS011;8445;51.270;9.434;2022-10-17T15:35:18;8.27;;;3.63;;
16662;SDS011;8445;51.270;9.434;2022-10-17T15:37:46;7.63;;;2.95;;
16662;SDS011;8445;51.270;9.434;2022-10-17T15:40:14;8.65;;;3.40;;
16662;SDS011;8445;51.270;9.434;2022-10-17T15:42:42;4.78;;;3.13;;
16662;SDS011;8445;51.270;9.434;2022-10-17T15:45:09;12.02;;;3.03;;
16662;SDS011;8445;51.270;9.434;2022-10-17T15:47:36;13.02;;;3.50;;
16662;SDS011;8445;51.270;9.434;2022-10-17T15:50:03;11.35;;;3.30;;
16662;SDS011;8445;51.270;9.434;2022-10-17T15:52:33;3.40;;;2.70;;
16662;SDS011;8445;51.270;9.434;2022-10-17T15:55:04;5.93;;;3.08;;
16662;SDS011;8445;51.270;9.434;2022-10-17T15:57:35;6.10;;;3.53;;
16662;SDS011;8445;51.270;9.434;2022-10-17T16:00:16;7.47;;;3.25;;
16662;SDS011;8445;51.270;9.434;2022-10-17T16:02:51;6.18;;;3.10;;
16662;SDS011;8445;51.270;9.434;2022-10-17T16:05:18;11.23;;;3.75;;
16662;SDS011;8445;51.270;9.434;2022-10-17T16:07:48;7.00;;;3.60;;
16662;SDS011;8445;51.270;9.434;2022-10-17T16:10:14;9.07;;;3.67;;
16662;SDS011;8445;51.270;9.434;2022-10-17T16:12:45;7.32;;;3.78;;
16662;SDS011;8445;51.270;9.434;2022-10-17T16:15:16;5.30;;;3.80;;
16662;SDS011;8445;51.270;9.434;2022-10-17T16:17:56;8.45;;;3.53;;
16662;SDS011;8445;51.270;9.434;2022-10-17T16:20:30;14.18;;;3.92;;
16662;SDS011;8445;51.270;9.434;2022-10-17T16:23:00;12.77;;;4.43;;
16662;SDS011;8445;51.270;9.434;2022-10-17T16:25:31;7.20;;;4.28;;
16662;SDS011;8445;51.270;9.434;2022-10-17T16:27:59;9.65;;;4.07;;
16662;SDS011;8445;51.270;9.434;2022-10-17T16:30:33;11.13;;;4.32;;
16662;SDS011;8445;51.270;9.434;2022-10-17T16:33:07;6.15;;;3.42;;
16662;SDS011;8445;51.270;9.434;2022-10-17T16:35:34;9.90;;;3.97;;
16662;SDS011;8445;51.270;9.434;2022-10-17T16:38:00;8.57;;;4.05;;
16662;SDS011;8445;51.270;9.434;2022-10-17T16:40:26;9.05;;;4.20;;
16662;SDS011;8445;51.270;9.434;2022-10-17T16:42:51;4.10;;;3.70;;
16662;SDS011;8445;51.270;9.434;2022-10-17T16:45:18;6.18;;;3.33;;
16662;SDS011;8445;51.270;9.434;2022-10-17T16:47:47;5.30;;;3.25;;
16662;SDS011;8445;51.270;9.434;2022-10-17T16:50:14;15.00;;;4.35;;
16662;SDS011;8445;51.270;9.434;2022-10-17T16:52:41;12.00;;;3.42;;
16662;SDS011;8445;51.270;9.434;2022-10-17T16:55:08;7.40;;;3.22;;
16662;SDS011;8445;51.270;9.434;2022-10-17T16:57:35;6.60;;;3.45;;
16662;SDS011;8445;51.270;9.434;2022-10-17T17:00:01;8.95;;;3.47;;
16662;SDS011;8445;51.270;9.434;2022-10-17T17:02:30;7.15;;;3.70;;
16662;SDS011;8445;51.270;9.434;2022-10-17T17:04:56;8.18;;;3.47;;
16662;SDS011;8445;51.270;9.434;2022-10-17T17:07:21;4.85;;;3.95;;
16662;SDS011;8445;51.270;9.434;2022-10-17T17:09:48;4.05;;;3.60;;
16662;SDS011;8445;51.270;9.434;2022-10-17T17:12:14;7.63;;;3.90;;
16662;SDS011;8445;51.270;9.434;2022-10-17T17:14:40;9.00;;;4.40;;
16662;SDS011;8445;51.270;9.434;2022-10-17T17:17:06;7.00;;;3.78;;
16662;SDS011;8445;51.270;9.434;2022-10-17T17:19:31;10.50;;;4.03;;
16662;SDS011;8445;51.270;9.434;2022-10-17T17:21:57;6.55;;;4.20;;
16662;SDS011;8445;51.270;9.434;2022-10-17T17:24:23;11.05;;;5.13;;
16662;SDS011;8445;51.270;9.434;2022-10-17T17:26:53;10.20;;;4.63;;
16662;SDS011;8445;51.270;9.434;2022-10-17T17:29:21;9.02;;;4.60;;
16662;SDS011;8445;51.270;9.434;2022-10-17T17:31:49;8.85;;;5.50;;
16662;SDS011;8445;51.270;9.434;2022-10-17T17:34:15;9.65;;;4.38;;
16662;SDS011;8445;51.270;9.434;2022-10-17T17:36:42;12.05;;;5.13;;
16662;SDS011;8445;51.270;9.434;2022-10-17T17:39:09;11.77;;;4.30;;
16662;SDS011;8445;51.270;9.434;2022-10-17T17:41:38;8.68;;;4.22;;
16662;SDS011;8445;51.270;9.434;2022-10-17T17:44:05;6.93;;;4.53;;
16662;SDS011;8445;51.270;9.434;2022-10-17T17:46:32;8.60;;;4.20;;
16662;SDS011;8445;51.270;9.434;2022-10-17T17:48:59;6.88;;;4.53;;